createdAt,value
2023-01-28T12:22:28.070Z,48.00
2023-01-28T12:26:56.506Z,43.60
2023-01-28T12:31:13.953Z,50.80
2023-01-28T12:35:43.475Z,56.20
2023-01-28T12:40:26.500Z,58.60
2023-01-28T12:44:34.829Z,60.20
2023-01-28T12:48:42.665Z,61.40
2023-01-28T12:52:51.651Z,62.20
2023-01-28T12:56:57.110Z,62.00
2023-01-28T13:01:07.387Z,62.10
2023-01-28T13:05:17.848Z,62.80
2023-01-28T13:09:24.544Z,63.10
2023-01-28T13:13:38.647Z,63.80
2023-01-28T13:17:57.761Z,64.30
2023-01-28T13:22:26.059Z,64.70
2023-01-28T13:26:30.249Z,65.20
2023-01-28T13:30:35.956Z,66.20
2023-01-28T13:34:44.191Z,67.20
2023-01-28T13:38:47.073Z,67.80
2023-01-28T13:43:06.435Z,68.00
2023-01-28T13:47:08.650Z,68.80
2023-01-28T13:51:20.369Z,69.40
2023-01-28T13:55:45.782Z,69.60
2023-01-28T14:00:02.679Z,69.40
2023-01-28T14:04:40.225Z,69.50
2023-01-28T14:08:54.717Z,69.60
2023-01-28T14:13:05.933Z,69.80
2023-01-28T14:18:00.704Z,70.10
2023-01-28T14:22:10.631Z,70.00
2023-01-28T14:26:15.875Z,69.90
2023-01-28T14:30:50.719Z,69.70
2023-01-28T14:34:54.019Z,69.20
2023-01-28T14:38:58.885Z,68.80
2023-01-28T14:43:05.017Z,69.30
2023-01-28T14:47:34.774Z,69.20
2023-01-28T14:51:39.846Z,68.70
2023-01-28T14:56:03.586Z,68.50
2023-01-28T15:00:23.504Z,69.10
2023-01-28T15:04:31.567Z,69.30
2023-01-28T15:08:35.758Z,69.00
2023-01-28T15:12:42.744Z,68.70
2023-01-28T15:16:49.780Z,68.70
2023-01-28T15:20:56.479Z,69.30
2023-01-28T15:25:01.443Z,68.80
2023-01-28T15:29:03.723Z,69.00
2023-01-28T15:33:14.611Z,68.80
2023-01-28T15:37:21.354Z,68.90
2023-01-28T15:41:30.065Z,69.40
2023-01-28T15:45:34.947Z,68.90
2023-01-28T15:49:47.347Z,69.30
2023-01-28T15:53:55.362Z,70.10
2023-01-28T15:57:57.692Z,69.80
2023-01-28T16:02:26.489Z,69.70
2023-01-28T16:06:34.529Z,69.70
2023-01-28T16:10:37.502Z,70.10
2023-01-28T16:14:44.437Z,70.30
2023-01-28T16:18:51.762Z,70.60
2023-01-28T16:23:02.399Z,70.40
2023-01-28T16:27:18.569Z,70.20
2023-01-28T16:31:21.244Z,71.60
2023-01-28T16:35:51.636Z,70.50
2023-01-28T16:39:58.075Z,70.10
2023-01-28T16:44:06.532Z,70.40
2023-01-28T16:48:09.136Z,70.30
2023-01-28T16:52:14.410Z,70.70
2023-01-28T16:56:43.919Z,70.70
2023-01-28T17:00:44.589Z,70.90
2023-01-28T17:04:49.052Z,71.30
2023-01-28T17:08:51.390Z,70.90
2023-01-28T17:12:54.499Z,71.10
2023-01-28T17:16:56.826Z,71.30
2023-01-28T17:21:03.487Z,71.50
2023-01-28T17:25:09.347Z,72.10
2023-01-28T17:29:14.083Z,71.70
2023-01-28T17:33:16.410Z,71.60
2023-01-28T17:37:21.167Z,72.00
2023-01-28T17:41:23.555Z,71.90
2023-01-28T17:45:25.934Z,72.40
2023-01-28T17:49:28.197Z,72.50
2023-01-28T17:53:32.812Z,72.00
2023-01-28T17:57:37.492Z,72.10
2023-01-28T18:01:43.687Z,72.40
2023-01-28T18:05:56.021Z,72.00
2023-01-28T18:10:01.229Z,72.40
2023-01-28T18:14:05.756Z,72.50
2023-01-28T18:18:08.181Z,72.70
2023-01-28T18:22:10.515Z,72.60
2023-01-28T18:26:15.118Z,72.80
2023-01-28T18:30:20.526Z,73.10
2023-01-28T18:34:27.933Z,73.30
2023-01-28T18:38:30.190Z,73.70
2023-01-28T18:42:35.079Z,73.30
2023-01-28T18:46:37.571Z,73.30
2023-01-28T18:50:39.937Z,74.10
2023-01-28T18:54:42.253Z,73.70
2023-01-28T18:58:44.494Z,73.80
2023-01-28T19:02:49.247Z,74.00
2023-01-28T19:06:58.536Z,73.80
2023-01-28T19:11:01.406Z,73.80
2023-01-28T19:15:13.226Z,74.00
2023-01-28T19:19:18.398Z,74.10
2023-01-28T19:23:23.315Z,74.20
2023-01-28T19:27:25.650Z,74.00
2023-01-28T19:31:30.490Z,74.20
2023-01-28T19:41:09.689Z,74.00
2023-01-28T19:45:15.122Z,73.90
2023-01-28T19:49:19.904Z,74.00
2023-01-28T19:53:24.910Z,74.00
2023-01-28T19:57:27.975Z,74.40
2023-01-28T20:01:30.799Z,74.10
2023-01-28T20:05:33.733Z,74.50
2023-01-28T20:09:38.474Z,74.70
2023-01-28T20:13:45.265Z,74.60
2023-01-28T20:17:50.052Z,74.90
2023-01-28T20:21:55.080Z,75.10
2023-01-28T20:26:03.620Z,76.00
2023-01-28T20:30:11.420Z,75.40
2023-01-28T20:34:17.056Z,75.50
2023-01-28T20:38:19.345Z,75.60
2023-01-28T20:42:23.773Z,75.70
2023-01-28T20:46:31.995Z,76.10
2023-01-28T20:50:35.243Z,76.40
2023-01-28T20:54:42.421Z,76.30
2023-01-28T20:58:44.868Z,76.40
2023-01-28T21:02:47.326Z,76.40
2023-01-28T21:06:52.229Z,76.40
2023-01-28T21:10:55.070Z,76.80
2023-01-28T21:14:57.922Z,76.70
2023-01-28T21:19:02.692Z,76.90
2023-01-28T21:23:05.018Z,77.20
2023-01-28T21:27:07.320Z,76.90
2023-01-28T21:31:14.651Z,77.10
2023-01-28T21:35:19.187Z,77.00
2023-01-28T21:39:24.189Z,77.00
2023-01-28T21:43:28.592Z,77.20
2023-01-28T21:47:30.915Z,77.40
2023-01-28T21:51:36.178Z,77.40
2023-01-28T21:55:40.917Z,77.70
2023-01-28T21:59:43.183Z,78.10
2023-01-28T22:03:45.627Z,78.50
2023-01-28T22:07:47.854Z,79.00
2023-01-28T22:11:52.495Z,79.30
2023-01-28T22:15:54.823Z,79.80
2023-01-28T22:19:57.290Z,80.10
2023-01-28T22:23:59.583Z,80.30
2023-01-28T22:28:02.042Z,80.80
2023-01-28T22:32:05.009Z,81.00
2023-01-28T22:36:14.161Z,81.30
2023-01-28T22:40:16.857Z,81.70
2023-01-28T22:44:20.297Z,84.30
2023-01-28T22:48:22.635Z,83.50
2023-01-28T22:52:24.953Z,83.60
2023-01-28T22:56:28.898Z,84.60
2023-01-28T23:00:31.797Z,84.40
2023-01-28T23:04:36.652Z,83.80
2023-01-28T23:08:38.958Z,83.60
2023-01-28T23:12:41.251Z,83.80
2023-01-28T23:17:02.700Z,84.20
2023-01-28T23:21:44.357Z,84.50
2023-01-28T23:25:46.636Z,84.80
2023-01-28T23:29:49.108Z,85.00
2023-01-28T23:33:53.468Z,85.50
2023-01-28T23:37:58.536Z,85.80
2023-01-28T23:42:19.162Z,86.10
2023-01-28T23:46:33.940Z,86.00
2023-01-28T23:50:41.090Z,86.40
2023-01-28T23:54:43.311Z,86.80
2023-01-28T23:58:45.641Z,86.60
